Kyle, South Dakota
Current Conditions -  °F | °C
As of 6:52 PM on Monday 20 Oct 2014 (Local Time) from KIEN Reporting Station
Clear Clear  
Wind Chill: 70°   Ceiling: Unl
Heat Index: 70°   Visibility: 10mi
Dew Point: 38°   Wind: 9mph
Humidity: 31%   Direction: 160°SSE
Pressure: 29.94"   Gusts: NA
Location:  43.43°N, 102.17°W
Report Text: KIEN 210052Z AUTO 16008KT 10SM CLR 21/03 A2994 RMK AO2 SLP134 T02110033 PWINO $
Loading
Personal Weather Stations






























Interactive Weather Map
Tropical Storm Tracking
New forecast layout! Learn more

10-Day Weather Forecast

Advertisements
Track Severe Weather on mobile